createdAt,value
2022-12-01T00:00:00.690Z,24.60
2022-12-01T00:01:00.723Z,23.90
2022-12-01T00:02:00.814Z,26.50
2022-12-01T00:03:00.792Z,25.00
2022-12-01T00:04:00.746Z,26.40
2022-12-01T00:05:00.640Z,27.40
2022-12-01T00:06:00.627Z,25.40
2022-12-01T00:07:00.634Z,26.80
2022-12-01T00:08:00.650Z,26.00
2022-12-01T00:09:00.637Z,27.40
2022-12-01T00:10:00.610Z,26.80
2022-12-01T00:11:00.554Z,26.50
2022-12-01T00:12:00.569Z,27.60
2022-12-01T00:13:00.559Z,25.80
2022-12-01T00:14:00.556Z,27.00
2022-12-01T00:15:00.536Z,26.90
2022-12-01T00:16:00.545Z,27.00
2022-12-01T00:17:00.525Z,27.60
2022-12-01T00:18:00.506Z,28.20
2022-12-01T00:19:00.469Z,27.20
2022-12-01T00:20:00.476Z,27.80
2022-12-01T00:21:00.457Z,28.00
2022-12-01T00:22:00.454Z,28.80
2022-12-01T00:23:00.445Z,28.00
2022-12-01T00:24:00.404Z,27.90
2022-12-01T00:25:00.415Z,29.60
2022-12-01T00:26:00.390Z,27.20
2022-12-01T00:27:00.401Z,29.90
2022-12-01T00:28:00.377Z,28.10
2022-12-01T00:29:00.352Z,28.90
2022-12-01T00:30:00.356Z,27.80
2022-12-01T00:31:00.333Z,29.10
2022-12-01T00:32:00.397Z,29.20
2022-12-01T00:33:00.531Z,28.90
2022-12-01T00:34:00.294Z,28.70
2022-12-01T00:35:00.288Z,30.30
2022-12-01T00:36:00.262Z,29.80
2022-12-01T00:37:00.268Z,30.30
2022-12-01T00:38:00.267Z,30.80
2022-12-01T00:39:00.229Z,31.80
2022-12-01T00:40:00.230Z,30.10
2022-12-01T00:41:00.209Z,30.20
2022-12-01T00:42:00.198Z,30.50
2022-12-01T00:43:00.202Z,30.80
2022-12-01T00:44:00.177Z,30.70
2022-12-01T00:45:00.203Z,31.50
2022-12-01T00:46:00.251Z,32.40
2022-12-01T00:47:00.129Z,31.00
2022-12-01T00:48:00.125Z,31.70
2022-12-01T00:49:00.155Z,29.70
2022-12-01T00:50:00.139Z,30.10
2022-12-01T00:51:00.112Z,32.10
2022-12-01T00:52:00.071Z,32.60
2022-12-01T00:53:00.062Z,32.00
2022-12-01T00:54:00.050Z,32.00
2022-12-01T00:55:00.082Z,31.70
2022-12-01T00:56:00.059Z,32.80
2022-12-01T00:57:00.014Z,31.60
2022-12-01T00:58:00.003Z,32.90
2022-12-01T00:59:00.004Z,31.40
2022-12-01T01:00:00.001Z,32.10
2022-12-01T01:01:00.059Z,32.80
2022-12-01T01:01:59.984Z,33.10
2022-12-01T01:02:59.946Z,32.10
2022-12-01T01:03:59.955Z,34.30
2022-12-01T01:04:59.927Z,32.40
2022-12-01T01:05:59.934Z,32.30
2022-12-01T01:06:59.891Z,31.40
2022-12-01T01:07:59.925Z,33.30
2022-12-01T01:08:59.907Z,32.20
2022-12-01T01:09:59.905Z,33.50
2022-12-01T01:10:59.853Z,33.00
2022-12-01T01:11:59.857Z,32.00
2022-12-01T01:12:59.839Z,32.80
2022-12-01T01:13:59.797Z,32.90
2022-12-01T01:14:59.809Z,32.40
2022-12-01T01:15:59.844Z,33.60
2022-12-01T01:16:59.819Z,32.80
2022-12-01T01:17:59.744Z,33.30
2022-12-01T01:18:59.758Z,33.10
2022-12-01T01:19:59.735Z,33.20
2022-12-01T01:20:59.749Z,32.60
2022-12-01T01:21:59.729Z,34.80
2022-12-01T01:22:59.719Z,33.80
2022-12-01T01:23:59.692Z,32.60
2022-12-01T01:24:59.696Z,33.60
2022-12-01T01:25:59.670Z,35.10
2022-12-01T01:26:59.700Z,32.90
2022-12-01T01:27:59.712Z,32.40
2022-12-01T01:28:59.643Z,34.60
2022-12-01T01:29:59.641Z,34.10
2022-12-01T01:30:59.699Z,36.00
2022-12-01T01:31:59.598Z,33.60
2022-12-01T01:32:59.627Z,36.00
2022-12-01T01:33:59.581Z,35.60
2022-12-01T01:34:59.561Z,35.40
2022-12-01T01:35:59.572Z,35.30
2022-12-01T01:36:59.549Z,34.10
2022-12-01T01:37:59.533Z,34.90
2022-12-01T01:38:59.519Z,35.40
2022-12-01T01:39:59.528Z,34.80
2022-12-01T01:40:59.506Z,35.00
2022-12-01T01:41:59.506Z,35.80
2022-12-01T01:42:59.460Z,36.30
2022-12-01T01:43:59.464Z,36.50
2022-12-01T01:44:59.463Z,34.30
2022-12-01T01:45:59.504Z,35.90
2022-12-01T01:46:59.474Z,35.50
2022-12-01T01:47:59.399Z,35.30
2022-12-01T01:48:59.381Z,34.50
2022-12-01T01:49:59.392Z,34.90
2022-12-01T01:50:59.376Z,34.60
2022-12-01T01:51:59.404Z,34.40
2022-12-01T01:52:59.357Z,33.60
2022-12-01T01:53:59.351Z,35.20
2022-12-01T01:54:59.321Z,35.20
2022-12-01T01:55:59.341Z,35.20
2022-12-01T01:56:59.323Z,35.00
2022-12-01T01:57:59.302Z,34.30
2022-12-01T01:58:59.307Z,33.20
2022-12-01T01:59:59.266Z,36.00
2022-12-01T02:00:59.282Z,33.50
2022-12-01T02:01:59.285Z,34.90
2022-12-01T02:02:59.278Z,35.40
2022-12-01T02:03:59.234Z,34.10
2022-12-01T02:04:59.219Z,34.60
2022-12-01T02:06:03.432Z,35.30
2022-12-01T02:07:00.232Z,35.70
2022-12-01T02:07:59.262Z,33.80
2022-12-01T02:08:59.154Z,35.50
2022-12-01T02:09:59.149Z,34.70
2022-12-01T02:10:59.147Z,34.10
2022-12-01T02:11:59.116Z,34.10
2022-12-01T02:12:59.168Z,34.20
2022-12-01T02:13:59.119Z,34.70
2022-12-01T02:14:59.119Z,35.80
2022-12-01T02:15:59.076Z,33.90
2022-12-01T02:16:59.105Z,34.90
2022-12-01T02:17:59.053Z,33.50
2022-12-01T02:18:59.112Z,33.40
2022-12-01T02:19:59.039Z,34.30
2022-12-01T02:20:59.007Z,33.50
2022-12-01T02:21:59.020Z,33.20
2022-12-01T02:22:59.010Z,34.30
2022-12-01T02:23:58.998Z,33.80
2022-12-01T02:24:59.000Z,36.20
2022-12-01T02:25:59.001Z,33.30
2022-12-01T02:26:58.973Z,33.00
2022-12-01T02:27:58.938Z,34.20
2022-12-01T02:28:58.931Z,33.70
2022-12-01T02:29:58.915Z,34.50
2022-12-01T02:30:58.987Z,33.30
2022-12-01T02:31:58.941Z,34.20
2022-12-01T02:32:58.903Z,33.20
2022-12-01T02:33:58.892Z,33.20
2022-12-01T02:34:58.851Z,33.90
2022-12-01T02:35:58.852Z,33.00
2022-12-01T02:36:58.829Z,34.10
2022-12-01T02:37:58.877Z,32.10
2022-12-01T02:38:58.833Z,33.60
2022-12-01T02:39:58.819Z,33.00
2022-12-01T02:40:58.797Z,33.40
2022-12-01T02:41:58.774Z,33.10
2022-12-01T02:42:58.794Z,35.40
2022-12-01T02:43:58.779Z,34.60
2022-12-01T02:44:58.731Z,34.40
2022-12-01T02:45:58.784Z,34.50
2022-12-01T02:46:58.725Z,34.00
2022-12-01T02:47:58.722Z,34.90
2022-12-01T02:48:58.704Z,33.60
2022-12-01T02:49:58.745Z,33.50
2022-12-01T02:50:58.677Z,33.60
2022-12-01T02:51:58.650Z,34.40
2022-12-01T02:52:58.687Z,35.10
2022-12-01T02:53:58.655Z,35.70
2022-12-01T02:54:58.636Z,36.10
2022-12-01T02:55:58.642Z,34.50
2022-12-01T02:56:58.627Z,34.40
2022-12-01T02:57:58.596Z,35.20
2022-12-01T02:58:58.571Z,35.20
2022-12-01T02:59:58.578Z,34.80
2022-12-01T03:00:58.611Z,34.30
2022-12-01T03:01:58.589Z,35.20
2022-12-01T03:02:58.619Z,36.00
2022-12-01T03:03:58.517Z,35.40
2022-12-01T03:04:58.497Z,36.90
2022-12-01T03:05:58.527Z,35.70
2022-12-01T03:06:58.525Z,36.80
2022-12-01T03:07:58.574Z,35.50
2022-12-01T03:08:58.498Z,34.70
2022-12-01T03:09:58.465Z,34.90
2022-12-01T03:10:58.446Z,36.60
2022-12-01T03:11:58.436Z,36.30
2022-12-01T03:12:58.416Z,33.80
2022-12-01T03:13:58.429Z,36.50
2022-12-01T03:14:58.390Z,36.30
2022-12-01T03:15:58.454Z,36.70
2022-12-01T03:16:58.377Z,37.00
2022-12-01T03:17:58.361Z,35.30
2022-12-01T03:18:58.386Z,35.50
2022-12-01T03:19:58.330Z,34.70
2022-12-01T03:20:58.317Z,35.80
2022-12-01T03:21:58.330Z,35.50
2022-12-01T03:22:58.299Z,36.90
2022-12-01T03:23:58.320Z,37.40
2022-12-01T03:24:58.268Z,36.70
2022-12-01T03:25:58.238Z,36.60
2022-12-01T03:26:58.253Z,37.70
2022-12-01T03:28:20.845Z,36.40
2022-12-01T03:28:59.270Z,37.30
2022-12-01T03:29:58.188Z,36.90
2022-12-01T03:30:58.236Z,37.00
2022-12-01T03:31:58.190Z,37.10
2022-12-01T03:32:58.177Z,37.80
2022-12-01T03:33:58.150Z,35.50
2022-12-01T03:34:58.186Z,40.00
2022-12-01T03:35:58.151Z,38.00
2022-12-01T03:36:58.120Z,37.30
2022-12-01T03:37:58.110Z,37.30
2022-12-01T03:38:58.104Z,37.00
2022-12-01T03:40:00.653Z,37.00
2022-12-01T03:40:58.079Z,36.90
2022-12-01T03:41:58.106Z,37.90
2022-12-01T03:42:58.052Z,36.40
2022-12-01T03:43:58.035Z,36.70
2022-12-01T03:44:58.012Z,36.00
2022-12-01T03:45:58.080Z,36.70
2022-12-01T03:46:57.992Z,36.60
2022-12-01T03:47:58.035Z,37.80
2022-12-01T03:48:57.973Z,37.30
2022-12-01T03:49:57.978Z,37.50
2022-12-01T03:50:57.991Z,38.20
2022-12-01T03:51:57.958Z,37.40
2022-12-01T03:52:57.964Z,36.60
2022-12-01T03:53:57.923Z,37.60
2022-12-01T03:54:57.895Z,37.10
2022-12-01T03:55:57.886Z,35.90
2022-12-01T03:56:57.904Z,38.70
2022-12-01T03:57:57.909Z,36.00
2022-12-01T03:58:57.887Z,37.50
2022-12-01T03:59:57.845Z,36.50
2022-12-01T04:00:57.839Z,36.10
2022-12-01T04:01:57.923Z,38.50
2022-12-01T04:02:57.887Z,38.30
2022-12-01T04:03:57.827Z,37.60
2022-12-01T04:04:57.808Z,38.30
2022-12-01T04:05:57.776Z,38.50
2022-12-01T04:06:57.772Z,39.10
2022-12-01T04:07:57.820Z,37.50
2022-12-01T04:08:57.772Z,37.80
2022-12-01T04:09:57.767Z,38.10
2022-12-01T04:10:57.709Z,37.20
2022-12-01T04:11:57.714Z,37.30
2022-12-01T04:12:57.699Z,39.60
2022-12-01T04:13:57.691Z,37.50
2022-12-01T04:14:57.667Z,38.90
2022-12-01T04:15:57.756Z,37.80
2022-12-01T04:16:57.653Z,38.30
2022-12-01T04:17:57.618Z,37.40
2022-12-01T04:18:57.637Z,36.60
2022-12-01T04:19:57.609Z,38.50
2022-12-01T04:20:57.603Z,38.10
2022-12-01T04:21:57.638Z,39.50
2022-12-01T04:22:57.569Z,37.40
2022-12-01T04:23:57.573Z,38.70
2022-12-01T04:24:57.573Z,39.70
2022-12-01T04:25:57.564Z,39.00
2022-12-01T04:26:57.536Z,38.70
2022-12-01T04:27:57.531Z,38.90
2022-12-01T04:28:57.490Z,39.80
2022-12-01T04:29:57.523Z,37.80
2022-12-01T04:30:57.537Z,39.90
2022-12-01T04:31:57.454Z,39.00
2022-12-01T04:32:57.453Z,40.20
2022-12-01T04:33:57.460Z,39.10
2022-12-01T04:34:57.441Z,38.50
2022-12-01T04:35:57.430Z,39.20
2022-12-01T04:36:57.392Z,39.70
2022-12-01T04:37:57.433Z,40.10
2022-12-01T04:38:57.377Z,38.10
2022-12-01T04:39:57.406Z,38.50
2022-12-01T04:40:57.378Z,39.00
2022-12-01T04:41:57.376Z,40.40
2022-12-01T04:42:57.324Z,38.10
2022-12-01T04:43:57.385Z,38.10
2022-12-01T04:44:57.347Z,37.70
2022-12-01T04:45:57.307Z,38.60
2022-12-01T04:46:57.380Z,38.50
2022-12-01T04:47:57.287Z,38.20
2022-12-01T04:48:57.312Z,38.80
2022-12-01T04:49:57.245Z,38.10
2022-12-01T04:50:57.254Z,39.30
2022-12-01T04:51:57.296Z,36.60
2022-12-01T04:52:57.204Z,40.30
2022-12-01T04:53:57.251Z,39.00
2022-12-01T04:54:57.210Z,37.80
2022-12-01T04:55:57.220Z,37.90
2022-12-01T04:56:57.180Z,37.60
2022-12-01T04:57:57.176Z,38.20
2022-12-01T04:58:57.137Z,40.10
2022-12-01T04:59:57.154Z,38.40
2022-12-01T05:00:57.173Z,36.00
2022-12-01T05:01:57.147Z,36.10
2022-12-01T05:02:57.117Z,38.30
2022-12-01T05:03:57.161Z,38.70
2022-12-01T05:04:57.124Z,37.70
2022-12-01T05:05:57.068Z,38.10
2022-12-01T05:06:57.058Z,36.60
2022-12-01T05:07:57.104Z,36.50
2022-12-01T05:08:57.042Z,37.10
2022-12-01T05:09:57.058Z,37.80
2022-12-01T05:10:57.049Z,37.20
2022-12-01T05:11:57.011Z,37.40
2022-12-01T05:12:56.992Z,35.90
2022-12-01T05:13:56.983Z,36.40
2022-12-01T05:14:57.022Z,37.20
2022-12-01T05:15:56.984Z,36.80
2022-12-01T05:16:56.957Z,38.00
2022-12-01T05:17:56.967Z,36.00
2022-12-01T05:18:56.929Z,34.30
2022-12-01T05:19:56.919Z,34.70
2022-12-01T05:20:56.925Z,35.90
2022-12-01T05:21:56.896Z,36.20
2022-12-01T05:23:05.357Z,37.10
2022-12-01T05:23:57.851Z,37.60
2022-12-01T05:24:56.851Z,37.00
2022-12-01T05:25:56.840Z,38.10
2022-12-01T05:26:56.854Z,39.10
2022-12-01T05:27:56.817Z,35.90
2022-12-01T05:28:56.800Z,37.40
2022-12-01T05:29:56.772Z,37.00
2022-12-01T05:30:56.821Z,37.70
2022-12-01T05:31:56.801Z,35.50
2022-12-01T05:32:56.752Z,36.20
2022-12-01T05:33:56.746Z,35.90
2022-12-01T05:34:56.752Z,36.90
2022-12-01T05:35:56.727Z,34.10
2022-12-01T05:36:56.747Z,36.20
2022-12-01T05:37:56.715Z,36.50
2022-12-01T05:38:56.673Z,33.50
2022-12-01T05:39:56.677Z,35.10
2022-12-01T05:40:56.657Z,37.70
2022-12-01T05:41:56.643Z,37.60
2022-12-01T05:42:56.706Z,38.00
2022-12-01T05:43:56.635Z,38.20
2022-12-01T05:44:56.606Z,38.80
2022-12-01T05:45:56.700Z,39.80
2022-12-01T05:46:56.575Z,39.60
2022-12-01T05:47:56.585Z,40.00
2022-12-01T05:48:56.585Z,39.40
2022-12-01T05:49:59.576Z,39.60
2022-12-01T05:50:57.548Z,40.10
2022-12-01T05:51:56.520Z,38.50
2022-12-01T05:52:56.518Z,39.30
2022-12-01T05:53:56.549Z,40.10
2022-12-01T05:54:56.534Z,40.70
2022-12-01T05:55:56.499Z,39.30
2022-12-01T05:56:56.447Z,39.40
2022-12-01T05:57:56.448Z,39.60
2022-12-01T05:58:56.440Z,38.90
2022-12-01T05:59:56.439Z,38.80
2022-12-01T06:00:56.468Z,38.70
2022-12-01T06:01:56.441Z,39.70
2022-12-01T06:02:56.378Z,40.20
2022-12-01T06:03:56.485Z,39.50
2022-12-01T06:04:56.372Z,39.00
2022-12-01T06:05:56.363Z,39.10
2022-12-01T06:06:56.358Z,37.50
2022-12-01T06:07:56.341Z,39.60
2022-12-01T06:08:56.330Z,40.60
2022-12-01T06:09:56.340Z,39.00
2022-12-01T06:10:56.299Z,38.10
2022-12-01T06:11:56.324Z,38.60
2022-12-01T06:12:56.279Z,37.80
2022-12-01T06:13:56.265Z,38.80
2022-12-01T06:14:56.282Z,38.20
2022-12-01T06:15:56.246Z,39.50
2022-12-01T06:16:56.250Z,39.30
2022-12-01T06:17:56.264Z,40.70
2022-12-01T06:18:56.205Z,38.00
2022-12-01T06:19:56.204Z,38.50
2022-12-01T06:20:56.217Z,41.10
2022-12-01T06:21:56.249Z,40.70
2022-12-01T06:22:56.158Z,40.00
2022-12-01T06:23:56.154Z,41.10
2022-12-01T06:24:56.122Z,44.90
2022-12-01T06:25:56.132Z,41.40
2022-12-01T06:26:56.118Z,43.30
2022-12-01T06:27:56.113Z,44.20
2022-12-01T06:28:56.074Z,42.70
2022-12-01T06:29:56.064Z,42.20
2022-12-01T06:31:01.292Z,44.70
2022-12-01T06:31:57.105Z,44.70
2022-12-01T06:32:56.065Z,42.80
2022-12-01T06:33:56.047Z,43.60
2022-12-01T06:34:56.022Z,42.10
2022-12-01T06:35:56.004Z,42.30
2022-12-01T06:36:55.986Z,42.40
2022-12-01T06:37:55.990Z,42.40
2022-12-01T06:38:56.188Z,42.70
2022-12-01T06:39:55.978Z,43.50
2022-12-01T06:40:55.998Z,43.30
2022-12-01T06:41:55.959Z,43.40
2022-12-01T06:42:55.916Z,41.00
2022-12-01T06:43:55.926Z,42.30
2022-12-01T06:44:55.887Z,41.90
2022-12-01T06:46:01.268Z,42.30
2022-12-01T06:46:56.886Z,43.50
2022-12-01T06:47:55.846Z,42.50
2022-12-01T06:48:55.846Z,42.30
2022-12-01T06:49:55.879Z,44.40
2022-12-01T06:50:55.882Z,41.50
2022-12-01T06:51:55.817Z,44.50
2022-12-01T06:52:55.820Z,39.50
2022-12-01T06:53:58.589Z,42.30
2022-12-01T06:54:56.813Z,39.80
2022-12-01T06:55:55.761Z,40.40
2022-12-01T06:56:55.748Z,42.30
2022-12-01T06:57:55.766Z,40.40
2022-12-01T06:58:55.741Z,42.00
2022-12-01T06:59:55.746Z,41.60
2022-12-01T07:00:55.750Z,42.10
2022-12-01T07:01:55.747Z,40.40
2022-12-01T07:02:55.793Z,40.00
2022-12-01T07:03:55.711Z,39.30
2022-12-01T07:04:55.748Z,41.60
2022-12-01T07:05:55.675Z,40.50
2022-12-01T07:06:55.659Z,38.90
2022-12-01T07:07:59.494Z,41.20
2022-12-01T07:08:55.610Z,41.30
2022-12-01T07:09:55.620Z,40.70
2022-12-01T07:10:55.647Z,39.20
2022-12-01T07:11:55.593Z,40.30
2022-12-01T07:12:55.582Z,39.40
2022-12-01T07:13:55.566Z,41.30
2022-12-01T07:14:55.575Z,42.10
2022-12-01T07:15:55.570Z,40.80
2022-12-01T07:16:55.636Z,41.10
2022-12-01T07:17:55.552Z,40.70
2022-12-01T07:18:55.492Z,40.10
2022-12-01T07:19:55.512Z,40.50
2022-12-01T07:20:55.493Z,43.00
2022-12-01T07:21:55.484Z,41.00
2022-12-01T07:22:55.494Z,40.90
2022-12-01T07:23:55.463Z,41.20
2022-12-01T07:24:55.448Z,41.60
2022-12-01T07:25:55.448Z,42.30
2022-12-01T07:26:55.425Z,42.60
2022-12-01T07:27:55.418Z,42.00
2022-12-01T07:28:55.426Z,42.20
2022-12-01T07:29:55.390Z,42.30
2022-12-01T07:30:55.453Z,40.60
2022-12-01T07:31:56.368Z,42.00
2022-12-01T07:32:55.389Z,40.70
2022-12-01T07:33:55.375Z,42.60
2022-12-01T07:34:55.337Z,41.40
2022-12-01T07:35:55.310Z,42.10
2022-12-01T07:36:55.341Z,41.50
2022-12-01T07:37:55.290Z,42.90
2022-12-01T07:38:55.330Z,41.90
2022-12-01T07:39:55.256Z,41.50
2022-12-01T07:40:56.265Z,41.50
2022-12-01T07:41:55.240Z,40.40
2022-12-01T07:42:55.245Z,42.50
2022-12-01T07:43:55.229Z,41.10
2022-12-01T07:44:55.227Z,40.20
2022-12-01T07:45:55.271Z,41.80
2022-12-01T07:46:55.238Z,41.50
2022-12-01T07:47:55.190Z,41.70
2022-12-01T07:48:55.183Z,41.50
2022-12-01T07:49:55.152Z,40.40
2022-12-01T07:50:55.152Z,38.80
2022-12-01T07:51:55.149Z,40.00
2022-12-01T07:52:55.143Z,38.80
2022-12-01T07:53:55.113Z,40.60
2022-12-01T07:54:55.093Z,36.90
2022-12-01T07:55:55.083Z,38.40
2022-12-01T07:56:55.104Z,36.80
2022-12-01T07:57:55.113Z,38.90
2022-12-01T07:58:55.051Z,38.00
2022-12-01T07:59:55.203Z,40.60
2022-12-01T08:00:55.011Z,38.40
2022-12-01T08:01:55.089Z,37.60
2022-12-01T08:02:55.088Z,39.10
2022-12-01T08:03:55.045Z,39.00
2022-12-01T08:04:55.034Z,40.60
2022-12-01T08:05:54.962Z,38.70
2022-12-01T08:06:54.941Z,39.20
2022-12-01T08:07:54.980Z,39.00
2022-12-01T08:08:54.922Z,38.00
2022-12-01T08:09:54.987Z,37.70
2022-12-01T08:10:54.915Z,38.90
2022-12-01T08:11:54.906Z,37.10
2022-12-01T08:12:54.894Z,39.10
2022-12-01T08:13:54.918Z,35.90
2022-12-01T08:14:54.883Z,36.40
2022-12-01T08:15:54.908Z,37.10
2022-12-01T08:16:54.857Z,37.90
2022-12-01T08:17:54.813Z,37.40
2022-12-01T08:18:54.847Z,36.80
2022-12-01T08:19:54.847Z,37.80
2022-12-01T08:20:54.800Z,36.90
2022-12-01T08:21:54.816Z,37.80
2022-12-01T08:22:54.799Z,36.20
2022-12-01T08:23:54.768Z,34.60
2022-12-01T08:24:54.747Z,36.40
2022-12-01T08:25:54.740Z,36.00
2022-12-01T08:26:54.745Z,35.80
2022-12-01T08:27:54.762Z,36.10
2022-12-01T08:28:54.730Z,35.90
2022-12-01T08:29:54.700Z,35.00
2022-12-01T08:30:54.731Z,33.40
2022-12-01T08:31:54.713Z,35.10
2022-12-01T08:32:54.681Z,35.90
2022-12-01T08:33:54.664Z,34.30
2022-12-01T08:34:54.652Z,35.10
2022-12-01T08:35:54.633Z,34.50
2022-12-01T08:36:54.648Z,34.30
2022-12-01T08:37:54.620Z,34.70
2022-12-01T08:38:54.577Z,34.90
2022-12-01T08:39:54.630Z,34.20
2022-12-01T08:40:54.585Z,34.60
2022-12-01T08:41:54.587Z,32.70
2022-12-01T08:42:54.538Z,33.00
2022-12-01T08:43:59.049Z,30.80
2022-12-01T08:44:55.629Z,34.30
2022-12-01T08:45:54.503Z,31.00
2022-12-01T08:46:54.884Z,30.00
2022-12-01T08:47:54.489Z,31.70
2022-12-01T08:48:54.519Z,31.90
2022-12-01T08:49:54.482Z,31.40
2022-12-01T08:50:54.462Z,32.30
2022-12-01T08:51:54.449Z,31.20
2022-12-01T08:52:54.489Z,32.60
2022-12-01T08:53:54.441Z,30.00
2022-12-01T08:54:54.472Z,30.40
2022-12-01T08:55:54.381Z,31.20
2022-12-01T08:56:54.381Z,30.60
2022-12-01T08:57:54.366Z,30.60
2022-12-01T08:58:54.582Z,31.80
2022-12-01T08:59:54.385Z,32.20
2022-12-01T09:00:54.366Z,31.70
2022-12-01T09:01:54.420Z,32.30
2022-12-01T09:02:54.406Z,30.60
2022-12-01T09:03:54.346Z,31.60
2022-12-01T09:04:54.292Z,30.80
2022-12-01T09:05:54.294Z,30.10
2022-12-01T09:06:54.276Z,30.10
2022-12-01T09:07:54.312Z,30.50
2022-12-01T09:08:54.263Z,30.40
2022-12-01T09:09:54.247Z,29.70
2022-12-01T09:10:54.260Z,29.90
2022-12-01T09:11:54.216Z,32.00
2022-12-01T09:12:54.217Z,29.90
2022-12-01T09:13:54.866Z,29.60
2022-12-01T09:14:54.201Z,29.50
2022-12-01T09:15:54.200Z,27.50
2022-12-01T09:16:54.168Z,29.20
2022-12-01T09:17:54.134Z,28.80
2022-12-01T09:18:54.124Z,30.70
2022-12-01T09:19:54.211Z,28.80
2022-12-01T09:20:54.105Z,28.60
2022-12-01T09:21:54.123Z,29.90
2022-12-01T09:22:54.104Z,29.10
2022-12-01T09:23:54.076Z,30.80
2022-12-01T09:24:54.077Z,29.50
2022-12-01T09:25:54.105Z,30.20
2022-12-01T09:26:54.055Z,29.90
2022-12-01T09:27:54.048Z,32.30
2022-12-01T09:28:54.020Z,31.60
2022-12-01T09:29:54.007Z,32.50
2022-12-01T09:30:53.996Z,32.10
2022-12-01T09:31:54.081Z,31.10
2022-12-01T09:32:53.977Z,31.50
2022-12-01T09:33:53.981Z,31.60
2022-12-01T09:34:53.982Z,31.10
2022-12-01T09:35:53.937Z,29.80
2022-12-01T09:36:53.970Z,32.10
2022-12-01T09:37:53.960Z,31.70
2022-12-01T09:38:53.928Z,31.40
2022-12-01T09:39:53.899Z,31.40
2022-12-01T09:40:53.886Z,29.90
2022-12-01T09:41:53.881Z,30.00
2022-12-01T09:42:53.879Z,29.50
2022-12-01T09:43:53.868Z,29.80
2022-12-01T09:44:53.830Z,29.20
2022-12-01T09:45:53.843Z,30.10
2022-12-01T09:46:53.944Z,29.00
2022-12-01T09:47:53.795Z,29.60
2022-12-01T09:48:53.820Z,27.80
2022-12-01T09:49:53.781Z,29.20
2022-12-01T09:50:53.760Z,27.50
2022-12-01T09:51:53.774Z,29.30
2022-12-01T09:52:53.779Z,28.40
2022-12-01T09:53:53.735Z,27.70
2022-12-01T09:54:53.761Z,27.60
2022-12-01T09:55:54.563Z,28.30
2022-12-01T09:56:53.690Z,28.10
2022-12-01T09:57:53.703Z,26.80
2022-12-01T09:58:53.705Z,27.50
2022-12-01T09:59:53.654Z,27.40
2022-12-01T10:00:53.689Z,27.50
2022-12-01T10:01:53.731Z,27.80
2022-12-01T10:02:53.624Z,26.40
2022-12-01T10:03:53.633Z,25.90
2022-12-01T10:04:53.656Z,25.50
2022-12-01T10:06:25.234Z,26.60
2022-12-01T10:06:54.598Z,27.10
2022-12-01T10:07:53.633Z,25.90
2022-12-01T10:08:53.555Z,25.70
2022-12-01T10:09:53.556Z,26.00
2022-12-01T10:10:53.553Z,26.20
2022-12-01T10:11:53.538Z,27.20
2022-12-01T10:12:53.518Z,26.10
2022-12-01T10:13:53.516Z,25.80
2022-12-01T10:14:53.544Z,27.20
2022-12-01T10:15:53.531Z,26.70
2022-12-01T10:16:53.455Z,25.50
2022-12-01T10:17:53.501Z,24.80
2022-12-01T10:18:53.442Z,24.70
2022-12-01T10:19:53.425Z,25.90
2022-12-01T10:20:53.596Z,26.80
2022-12-01T10:21:53.661Z,26.80
2022-12-01T10:22:53.438Z,26.20
2022-12-01T10:23:53.396Z,26.10
2022-12-01T10:24:53.389Z,25.60
2022-12-01T10:25:53.410Z,26.30
2022-12-01T10:26:53.347Z,26.00
2022-12-01T10:27:53.351Z,26.30
2022-12-01T10:28:53.356Z,28.50
2022-12-01T10:29:53.889Z,25.30
2022-12-01T10:30:53.332Z,26.20
2022-12-01T10:31:53.676Z,25.90
2022-12-01T10:32:53.311Z,26.90
2022-12-01T10:33:53.312Z,26.50
2022-12-01T10:34:53.259Z,28.90
2022-12-01T10:35:53.268Z,26.70
2022-12-01T10:36:53.239Z,25.30
2022-12-01T10:37:53.275Z,25.80
2022-12-01T10:38:53.245Z,27.60
2022-12-01T10:39:53.362Z,26.50
2022-12-01T10:40:53.213Z,26.50
2022-12-01T10:41:53.179Z,26.40
2022-12-01T10:42:53.200Z,26.20
2022-12-01T10:43:53.190Z,26.50
2022-12-01T10:44:53.161Z,26.70
2022-12-01T10:45:53.245Z,26.60
2022-12-01T10:46:53.141Z,26.20
2022-12-01T10:47:57.603Z,25.20
2022-12-01T10:48:54.114Z,25.80
2022-12-01T10:49:53.349Z,25.50
2022-12-01T10:50:53.107Z,25.70
2022-12-01T10:51:53.145Z,24.60
2022-12-01T10:52:53.065Z,25.00
2022-12-01T10:53:53.093Z,24.70
2022-12-01T10:54:53.065Z,25.30
2022-12-01T10:55:53.056Z,24.60
2022-12-01T10:56:53.034Z,25.20
2022-12-01T10:57:53.016Z,23.60
2022-12-01T10:58:52.982Z,25.30
2022-12-01T10:59:53.106Z,24.50
2022-12-01T11:01:00.864Z,25.20
2022-12-01T11:01:54.256Z,24.80
2022-12-01T11:02:53.061Z,24.40
2022-12-01T11:03:52.989Z,25.00
2022-12-01T11:04:52.914Z,25.40
2022-12-01T11:05:52.947Z,23.60
2022-12-01T11:06:52.916Z,24.60
2022-12-01T11:07:52.963Z,25.00
2022-12-01T11:08:52.889Z,24.50
2022-12-01T11:09:52.864Z,23.90
2022-12-01T11:10:52.877Z,24.70
2022-12-01T11:11:52.850Z,24.70
2022-12-01T11:12:52.858Z,24.80
2022-12-01T11:13:52.813Z,24.60
2022-12-01T11:14:53.039Z,24.20
2022-12-01T11:15:52.809Z,24.30
2022-12-01T11:16:52.874Z,24.40
2022-12-01T11:17:52.787Z,25.00
2022-12-01T11:18:52.855Z,24.60
2022-12-01T11:19:53.268Z,25.30
2022-12-01T11:20:52.747Z,23.70
2022-12-01T11:21:52.727Z,24.20
2022-12-01T11:22:52.767Z,23.90
2022-12-01T11:23:52.731Z,23.50
2022-12-01T11:24:52.725Z,25.20
2022-12-01T11:25:52.683Z,25.10
2022-12-01T11:26:52.702Z,24.70
2022-12-01T11:27:52.701Z,24.80
2022-12-01T11:28:52.673Z,24.80
2022-12-01T11:29:52.874Z,24.60
2022-12-01T11:30:56.554Z,24.50
2022-12-01T11:31:52.639Z,24.90
2022-12-01T11:32:52.646Z,26.60
2022-12-01T11:33:52.633Z,26.30
2022-12-01T11:34:52.624Z,27.00
2022-12-01T11:35:52.624Z,25.80
2022-12-01T11:36:52.550Z,27.20
2022-12-01T11:38:21.076Z,26.40
2022-12-01T11:38:53.544Z,26.10
2022-12-01T11:39:52.848Z,28.40
2022-12-01T11:40:52.587Z,27.00
2022-12-01T11:41:52.515Z,27.90
2022-12-01T11:42:52.505Z,28.60
2022-12-01T11:44:01.166Z,26.50
2022-12-01T11:44:53.477Z,26.80
2022-12-01T11:45:52.511Z,28.00
2022-12-01T11:47:07.737Z,28.30
2022-12-01T11:47:53.421Z,28.90
2022-12-01T11:48:52.436Z,27.40
2022-12-01T11:49:52.963Z,28.20
2022-12-01T11:50:52.449Z,27.40
2022-12-01T11:51:52.413Z,27.10
2022-12-01T11:52:52.391Z,25.90
2022-12-01T11:53:52.353Z,26.80
2022-12-01T11:54:52.358Z,27.70
2022-12-01T11:55:52.407Z,28.30
2022-12-01T11:57:10.658Z,27.00
2022-12-01T11:57:53.316Z,28.00
2022-12-01T11:58:52.328Z,27.60
2022-12-01T11:59:52.708Z,27.00
2022-12-01T12:00:52.297Z,26.90
2022-12-01T12:01:52.297Z,28.60
2022-12-01T12:02:52.279Z,25.60
2022-12-01T12:03:52.292Z,25.50
2022-12-01T12:04:52.233Z,25.80
2022-12-01T12:05:52.830Z,25.80
2022-12-01T12:06:52.235Z,27.10
2022-12-01T12:07:52.271Z,24.90
2022-12-01T12:08:52.264Z,26.00
2022-12-01T12:09:52.536Z,25.20
2022-12-01T12:10:52.218Z,26.10
2022-12-01T12:11:52.168Z,25.70
2022-12-01T12:12:52.172Z,25.70
2022-12-01T12:13:52.157Z,26.40
2022-12-01T12:14:52.119Z,26.50
2022-12-01T12:15:52.099Z,25.70
2022-12-01T12:16:52.130Z,27.20
2022-12-01T12:17:52.226Z,27.20
2022-12-01T12:18:52.101Z,26.20
2022-12-01T12:20:08.941Z,25.90
2022-12-01T12:20:53.081Z,26.10
2022-12-01T12:21:52.032Z,25.30
2022-12-01T12:22:55.521Z,26.80
2022-12-01T12:23:52.009Z,26.70
2022-12-01T12:24:52.012Z,26.20
2022-12-01T12:25:52.025Z,26.70
2022-12-01T12:26:51.973Z,25.40
2022-12-01T12:27:51.967Z,26.20
2022-12-01T12:28:51.979Z,26.00
2022-12-01T12:29:52.341Z,26.10
2022-12-01T12:30:51.993Z,27.30
2022-12-01T12:31:51.958Z,27.60
2022-12-01T12:32:51.924Z,28.70
2022-12-01T12:33:51.925Z,27.70
2022-12-01T12:34:51.904Z,27.70
2022-12-01T12:35:51.871Z,27.00
2022-12-01T12:36:51.850Z,27.90
2022-12-01T12:37:51.894Z,27.00
2022-12-01T12:38:51.865Z,28.20
2022-12-01T12:39:52.212Z,26.80
2022-12-01T12:40:51.829Z,27.70
2022-12-01T12:41:52.866Z,28.50
2022-12-01T12:42:51.793Z,25.90
2022-12-01T12:43:51.794Z,28.10
2022-12-01T12:44:51.808Z,28.20
2022-12-01T12:45:51.775Z,28.10
2022-12-01T12:46:51.777Z,28.20
2022-12-01T12:47:51.738Z,27.00
2022-12-01T12:49:18.680Z,28.40
2022-12-01T12:49:52.761Z,27.00
2022-12-01T12:50:51.707Z,26.60
2022-12-01T12:51:51.695Z,26.30